Time;durP1;ratioP1;P1;durP2;ratioP2;P2;SDS_P1;SDS_P2;PMS_P1;PMS_P2;Temp;Humidity;BMP_temperature;BMP_pressure;BME280_temperature;BME280_humidity;BME280_pressure;Samples;Min_cycle;Max_cycle;Signal;HPM_P1;HPM_P2
2023/08/12 00:00:22;;;;;;;5.30;3.55;;;;;;;22.60;72.26;99356.84;7153033;40;20452;31
2023/08/12 00:05:57;;;;;;;3.97;3.13;;;;;;;22.71;71.40;99356.00;7188005;40;20254;31
2023/08/12 00:11:33;;;;;;;9.43;4.03;;;;;;;22.72;72.19;99339.28;7211384;40;20281;31
2023/08/12 00:17:08;;;;;;;5.35;3.60;;;;;;;22.54;72.74;99333.06;7198698;40;20255;31
2023/08/12 00:22:41;;;;;;;4.37;3.45;;;;;;;22.59;72.94;99333.19;7126347;40;20255;31
2023/08/12 00:28:17;;;;;;;3.97;3.58;;;;;;;22.68;72.42;99321.59;7134341;40;20250;31
2023/08/12 00:33:37;;;;;;;4.07;3.67;;;;;;;22.74;72.38;99320.63;7135945;40;20247;31
2023/08/12 00:39:12;;;;;;;4.15;3.60;;;;;;;22.73;72.03;99318.16;7170157;40;20266;31
2023/08/12 00:44:49;;;;;;;5.45;3.60;;;;;;;22.78;72.54;99313.56;7184142;40;20295;31
2023/08/12 00:50:24;;;;;;;4.37;3.60;;;;;;;22.77;72.86;99314.63;7245345;40;20324;31
2023/08/12 00:55:59;;;;;;;4.00;3.60;;;;;;;22.81;72.67;99326.00;7246767;40;20265;31
2023/08/12 01:01:36;;;;;;;4.03;3.58;;;;;;;22.83;73.47;99329.34;7253865;40;20245;31
2023/08/12 01:07:08;;;;;;;4.65;3.80;;;;;;;22.81;73.10;99318.59;7201961;40;21396;31
2023/08/12 01:12:43;;;;;;;5.90;3.73;;;;;;;22.83;73.76;99318.34;7196601;40;21207;31
2023/08/12 01:18:20;;;;;;;4.20;3.80;;;;;;;22.83;73.37;99316.44;7187958;40;20272;31
2023/08/12 01:23:56;;;;;;;3.95;3.55;;;;;;;22.89;73.39;99322.87;7202799;40;20436;31
2023/08/12 01:29:32;;;;;;;3.60;3.30;;;;;;;22.86;73.41;99309.63;7233975;40;20273;31
2023/08/12 01:35:08;;;;;;;4.72;3.65;;;;;;;22.85;73.53;99321.69;7261770;39;20444;31
2023/08/12 01:40:39;;;;;;;4.47;3.37;;;;;;;22.88;72.90;99321.19;7224800;40;20458;31
2023/08/12 01:51:15;;;;;;;5.90;3.60;;;;;;;22.84;73.86;99334.59;7235940;40;20404;31
2023/08/12 01:56:51;;;;;;;4.27;3.50;;;;;;;22.80;73.76;99321.59;7234842;40;20278;31
2023/08/12 02:02:49;;;;;;;7.80;3.60;;;;;;;22.86;74.00;99317.88;7263467;40;20249;31
2023/08/12 02:08:24;;;;;;;3.87;3.47;;;;;;;22.91;72.81;99313.28;7260446;40;20440;31
2023/08/12 02:19:01;;;;;;;3.80;3.50;;;;;;;23.12;71.05;99324.72;7272245;40;21516;31
2023/08/12 02:29:22;;;;;;;4.57;3.83;;;;;;;23.33;71.65;99300.13;7319818;39;21815;31
2023/08/12 02:34:58;;;;;;;5.32;3.87;;;;;;;23.36;71.48;99307.03;7317771;39;20308;31
2023/08/12 02:40:18;;;;;;;8.05;3.50;;;;;;;23.35;72.06;99292.44;7285593;40;20263;31
2023/08/12 02:45:38;;;;;;;6.20;3.95;;;;;;;23.33;72.11;99300.13;7277694;40;20268;31
2023/08/12 02:51:15;;;;;;;4.45;4.00;;;;;;;23.31;72.22;99302.25;7282666;40;20245;31
2023/08/12 02:56:35;;;;;;;5.65;4.03;;;;;;;23.35;71.89;99283.34;7193586;40;20363;31
2023/08/12 03:01:55;;;;;;;7.68;4.30;;;;;;;23.31;73.70;99251.91;7155059;40;20270;31
2023/08/12 03:12:33;;;;;;;7.43;4.03;;;;;;;23.33;73.92;99234.09;7202470;40;21090;31
2023/08/12 03:23:12;;;;;;;6.73;3.97;;;;;;;23.35;75.71;99231.06;7272822;40;20489;31
2023/08/12 03:28:48;;;;;;;5.50;4.10;;;;;;;23.28;75.33;99235.91;7212685;40;20440;31
2023/08/12 03:34:09;;;;;;;6.05;3.80;;;;;;;23.38;73.72;99238.00;7222030;40;20277;31
2023/08/12 03:39:29;;;;;;;6.30;3.72;;;;;;;23.40;74.45;99247.66;7195088;40;20401;31
2023/08/12 03:45:04;;;;;;;5.18;3.78;;;;;;;23.36;74.76;99260.25;7175977;40;20266;31
2023/08/12 03:50:39;;;;;;;5.25;3.72;;;;;;;23.39;74.84;99256.19;7179729;40;20262;31
2023/08/12 03:56:16;;;;;;;6.53;3.87;;;;;;;23.45;74.82;99269.81;7208435;40;20434;31
2023/08/12 04:01:50;;;;;;;4.65;3.80;;;;;;;23.40;75.19;99279.84;7254614;40;20330;31
2023/08/12 04:07:11;;;;;;;5.25;4.35;;;;;;;23.42;74.36;99275.78;7204366;40;20453;31
2023/08/12 04:12:45;;;;;;;4.25;3.75;;;;;;;23.37;74.33;99278.44;7209729;40;20250;31
2023/08/12 04:18:19;;;;;;;5.06;3.88;;;;;;;23.27;75.14;99290.09;7178348;40;20470;31
2023/08/12 04:28:41;;;;;;;6.37;4.30;;;;;;;23.29;75.08;99282.44;7213149;40;20270;31
2023/08/12 04:39:16;;;;;;;7.20;6.50;;;;;;;23.28;75.11;99286.25;7228090;39;21561;31
2023/08/12 04:44:37;;;;;;;8.75;4.70;;;;;;;23.32;75.83;99286.59;7261096;40;20265;31
2023/08/12 04:50:12;;;;;;;7.85;5.45;;;;;;;23.24;76.04;99271.34;7275491;39;20425;31
2023/08/12 04:55:45;;;;;;;7.10;4.30;;;;;;;23.16;76.04;99277.25;7293549;39;20432;31
2023/08/12 05:01:06;;;;;;;6.40;4.23;;;;;;;23.14;76.83;99275.78;7250112;40;20457;31
2023/08/12 05:06:26;;;;;;;5.20;4.00;;;;;;;23.06;76.58;99271.53;7304078;39;20264;31
2023/08/12 05:12:00;;;;;;;7.20;4.50;;;;;;;23.03;76.36;99266.53;7287865;40;20345;31
2023/08/12 05:17:35;;;;;;;8.18;4.47;;;;;;;22.93;77.16;99266.31;7247272;40;20254;31
2023/08/12 05:22:55;;;;;;;5.70;4.13;;;;;;;22.81;77.09;99265.53;7213976;40;20280;31
2023/08/12 05:28:31;;;;;;;6.50;5.05;;;;;;;22.71;79.22;99270.81;7161961;40;20357;31
2023/08/12 05:34:06;;;;;;;6.75;4.72;;;;;;;22.74;79.03;99273.06;7174370;40;20261;31
2023/08/12 05:39:26;;;;;;;7.20;4.00;;;;;;;22.84;78.02;99285.13;7139572;40;20289;31
2023/08/12 05:45:02;;;;;;;5.32;4.15;;;;;;;23.02;78.23;99289.59;7167372;40;20268;31
2023/08/12 05:50:31;;;;;;;5.30;4.40;;;;;;;23.15;77.17;99277.47;7170139;40;20329;31
2023/08/12 05:56:03;;;;;;;4.87;4.40;;;;;;;23.29;77.78;99287.94;6961543;40;20243;31
2023/08/12 06:01:40;;;;;;;5.90;4.30;;;;;;;23.43;76.73;99287.63;7234251;40;20266;31
2023/08/12 06:07:15;;;;;;;5.87;4.60;;;;;;;23.48;76.39;99284.97;7196544;40;20262;31
2023/08/12 06:12:50;;;;;;;8.40;5.60;;;;;;;23.53;76.72;99285.06;7187545;40;20270;31
2023/08/12 06:18:26;;;;;;;6.20;4.60;;;;;;;23.60;77.34;99294.84;7182944;40;20266;31
2023/08/12 06:24:01;;;;;;;7.15;4.55;;;;;;;23.65;75.91;99300.44;7177135;40;20250;31
2023/08/12 06:29:21;;;;;;;7.30;4.80;;;;;;;23.80;75.18;99303.44;7175397;40;20264;31
2023/08/12 06:34:57;;;;;;;6.40;5.30;;;;;;;23.82;76.30;99300.47;7212791;40;20262;31
2023/08/12 06:40:17;;;;;;;6.15;4.80;;;;;;;23.85;75.61;99299.94;7185914;40;20273;31
2023/08/12 06:45:38;;;;;;;6.75;5.15;;;;;;;23.84;76.35;99287.25;7240575;40;20245;31
2023/08/12 06:51:11;;;;;;;5.68;4.53;;;;;;;23.77;77.24;99292.13;7254259;40;20257;31
2023/08/12 06:56:31;;;;;;;8.45;4.30;;;;;;;23.88;76.93;99291.19;7288031;39;20311;31
2023/08/12 07:01:51;;;;;;;5.95;4.75;;;;;;;23.94;76.43;99289.34;7274870;40;20419;31
2023/08/12 07:07:28;;;;;;;8.22;4.58;;;;;;;23.95;76.69;99291.87;7274946;40;20263;31
2023/08/12 07:13:00;;;;;;;5.02;4.40;;;;;;;24.08;75.57;99280.50;7240767;40;20288;31
2023/08/12 07:18:17;;;;;;;8.90;4.96;;;;;;;24.20;75.36;99275.75;7254541;40;20277;31
2023/08/12 07:28:58;;;;;;;6.40;4.30;;;;;;;24.50;74.60;99288.28;7273778;40;21912;31
2023/08/12 07:34:18;;;;;;;6.25;4.20;;;;;;;24.81;71.93;99300.56;7240756;40;20355;31
2023/08/12 07:39:38;;;;;;;8.65;4.40;;;;;;;24.80;72.07;99285.09;7254316;40;20257;31
2023/08/12 07:45:12;;;;;;;5.82;4.60;;;;;;;24.94;71.86;99287.25;7255755;40;20434;31
2023/08/12 07:50:32;;;;;;;5.68;4.62;;;;;;;24.84;72.15;99292.59;7214355;40;20333;31
2023/08/12 07:56:07;;;;;;;5.75;4.55;;;;;;;25.02;71.16;99288.72;7234785;40;20241;31
2023/08/12 08:01:43;;;;;;;7.93;4.37;;;;;;;25.00;71.83;99288.16;7233974;40;20276;31
2023/08/12 08:07:18;;;;;;;5.25;4.40;;;;;;;25.23;70.90;99287.03;7243467;40;20328;31
2023/08/12 08:12:38;;;;;;;5.30;4.55;;;;;;;25.23;71.40;99292.56;7215200;40;20254;31
2023/08/12 08:18:11;;;;;;;6.37;4.45;;;;;;;25.58;70.42;99286.59;7238259;40;20467;31
2023/08/12 08:28:32;;;;;;;6.37;4.65;;;;;;;26.15;69.35;99267.44;7295755;39;21655;31
2023/08/12 08:39:12;;;;;;;9.07;7.65;;;;;;;26.74;67.60;99238.47;7252249;40;20513;31
2023/08/12 08:44:47;;;;;;;6.50;4.80;;;;;;;26.69;67.26;99249.50;7291780;39;20279;31
2023/08/12 08:50:22;;;;;;;11.16;4.44;;;;;;;26.75;66.41;99242.91;7212473;40;20570;31
2023/08/12 08:55:55;;;;;;;6.85;4.30;;;;;;;26.74;66.70;99251.47;7139481;40;20345;31
2023/08/12 09:06:31;;;;;;;5.60;3.95;;;;;;;27.13;64.99;99262.97;7120053;40;21199;31
2023/08/12 09:17:08;;;;;;;4.72;4.07;;;;;;;27.14;64.88;99254.41;7208113;40;20354;31
2023/08/12 09:27:45;;;;;;;7.03;4.50;;;;;;;27.47;64.58;99263.34;7246247;40;21202;31
2023/08/12 09:33:16;;;;;;;6.47;4.30;;;;;;;27.23;65.04;99261.06;7213857;40;20281;31
2023/08/12 09:43:53;;;;;;;5.70;4.50;;;;;;;27.23;65.20;99271.31;7253500;40;21434;31
2023/08/12 09:49:27;;;;;;;4.83;4.27;;;;;;;26.97;65.77;99275.94;7215828;40;20254;31
2023/08/12 09:54:58;;;;;;;5.43;4.35;;;;;;;27.17;65.79;99275.16;7182507;40;20262;31
2023/08/12 10:00:28;;;;;;;7.70;4.50;;;;;;;27.35;65.04;99271.88;7234268;40;20273;31
2023/08/12 10:06:02;;;;;;;7.18;4.20;;;;;;;27.28;66.21;99263.03;7244078;40;20444;31
2023/08/12 10:11:33;;;;;;;6.87;4.45;;;;;;;27.44;65.42;99267.47;7274938;39;21315;31
2023/08/12 10:17:09;;;;;;;4.55;4.00;;;;;;;27.74;65.20;99250.91;7256930;40;20458;31
2023/08/12 10:22:44;;;;;;;4.80;4.20;;;;;;;27.82;64.25;99257.03;7197514;40;20262;31
2023/08/12 10:28:16;;;;;;;5.64;4.44;;;;;;;27.48;65.49;99256.69;7139483;40;20247;31
2023/08/12 10:33:50;;;;;;;5.95;4.10;;;;;;;27.20;65.85;99261.63;7155015;40;20251;31
2023/08/12 10:39:24;;;;;;;9.95;4.12;;;;;;;26.86;69.50;99318.50;7146812;40;20250;31
2023/08/12 10:45:05;;;;;;;10.00;5.75;;;;;;;26.11;75.76;99291.19;7210651;40;20359;31
2023/08/12 10:50:39;;;;;;;6.93;5.15;;;;;;;25.69;78.83;99246.91;7211622;40;20273;31
2023/08/12 10:56:15;;;;;;;5.85;4.20;;;;;;;25.31;78.93;99283.81;7224724;40;20250;31
2023/08/12 11:01:50;;;;;;;6.43;3.83;;;;;;;25.06;80.89;99300.91;7244650;40;20350;31
2023/08/12 11:07:32;;;;;;;6.54;4.86;;;;;;;25.13;80.91;99309.81;7178251;40;20239;31
2023/08/12 11:13:09;;;;;;;4.70;3.60;;;;;;;25.22;79.98;99290.88;7096990;40;20252;31
2023/08/12 11:18:44;;;;;;;4.52;4.00;;;;;;;25.29;80.01;99283.22;7148961;40;20435;31
2023/08/12 11:24:16;;;;;;;4.50;4.00;;;;;;;25.41;81.13;99278.38;7138400;40;20279;31
2023/08/12 11:34:53;;;;;;;4.82;4.12;;;;;;;25.75;81.32;99284.53;7216613;40;20796;31
2023/08/12 11:40:29;;;;;;;4.40;3.35;;;;;;;25.85;80.69;99265.25;7186000;40;20400;31
2023/08/12 11:45:49;;;;;;;5.43;3.90;;;;;;;25.67;81.75;99285.81;7252039;40;20281;31
2023/08/12 11:51:25;;;;;;;5.30;3.80;;;;;;;25.65;82.07;99271.47;7236915;40;20335;31
2023/08/12 11:56:59;;;;;;;3.55;3.25;;;;;;;25.72;81.15;99274.81;7243413;40;20272;31
2023/08/12 12:02:35;;;;;;;4.30;3.20;;;;;;;25.77;81.45;99269.34;7219898;40;20433;31
2023/08/12 12:08:09;;;;;;;3.90;3.50;;;;;;;25.86;80.80;99265.00;7239121;40;20299;31
2023/08/12 12:13:44;;;;;;;5.75;3.70;;;;;;;25.94;79.15;99277.50;7228630;40;20262;31
2023/08/12 12:19:15;;;;;;;4.97;3.57;;;;;;;26.00;80.05;99280.03;7193134;40;20639;31
2023/08/12 12:29:52;;;;;;;3.87;3.33;;;;;;;26.22;78.17;99263.38;7284916;39;20554;31
2023/08/12 12:35:28;;;;;;;4.13;3.47;;;;;;;26.29;77.80;99258.44;7022238;40;20265;31
2023/08/12 12:41:03;;;;;;;4.90;3.45;;;;;;;26.68;78.60;99267.19;7271388;40;20438;31
2023/08/12 12:46:36;;;;;;;6.87;3.75;;;;;;;27.11;76.67;99270.72;7215511;40;20272;31
2023/08/12 12:51:53;;;;;;;4.35;3.50;;;;;;;27.10;76.72;99283.75;7197090;40;20254;31
2023/08/12 12:57:13;;;;;;;5.15;3.55;;;;;;;26.96;76.66;99296.41;7182770;40;20335;31
2023/08/12 13:02:46;;;;;;;5.00;3.87;;;;;;;26.86;77.21;99296.34;7224111;40;20459;31
2023/08/12 13:08:04;;;;;;;7.85;3.60;;;;;;;26.86;78.08;99291.66;7216125;40;20276;31
2023/08/12 13:13:21;;;;;;;5.85;4.00;;;;;;;26.99;77.57;99290.31;7263252;40;20276;31
2023/08/12 13:18:58;;;;;;;4.15;3.45;;;;;;;27.00;77.82;99286.47;7257705;39;20249;31
2023/08/12 13:24:29;;;;;;;5.25;4.32;;;;;;;27.01;78.33;99287.28;7268378;40;20269;31
2023/08/12 13:30:04;;;;;;;6.37;4.43;;;;;;;26.90;78.51;99289.19;7246863;40;20276;31
2023/08/12 13:35:38;;;;;;;6.10;4.60;;;;;;;26.87;79.75;99282.28;7174073;40;20289;31
2023/08/12 13:41:13;;;;;;;5.10;4.06;;;;;;;26.89;77.84;99280.06;7203640;40;20494;31
2023/08/12 13:51:51;;;;;;;5.00;4.30;;;;;;;26.80;78.97;99301.03;7221254;40;21666;31
2023/08/12 14:02:12;;;;;;;5.68;4.25;;;;;;;26.57;77.83;99278.50;7298033;40;21336;31
2023/08/12 14:07:48;;;;;;;5.90;4.40;;;;;;;26.33;79.38;99275.31;7274477;40;20299;31
2023/08/12 14:18:24;;;;;;;7.18;4.00;;;;;;;26.02;80.13;99236.38;7332444;39;21395;31
2023/08/12 14:29:01;;;;;;;5.93;3.60;;;;;;;25.80;79.99;99216.34;7312708;39;21170;31
2023/08/12 14:39:22;;;;;;;4.90;3.40;;;;;;;25.70;80.23;99218.22;7258109;40;21341;31
2023/08/12 14:44:58;;;;;;;4.70;3.50;;;;;;;25.57;79.75;99222.25;7274509;40;20250;31
2023/08/12 14:50:18;;;;;;;6.10;3.87;;;;;;;25.49;79.75;99258.59;7328340;39;20247;31
2023/08/12 14:55:38;;;;;;;5.66;3.26;;;;;;;25.44;79.95;99266.81;7319519;39;20276;31
2023/08/12 15:01:09;;;;;;;4.60;3.20;;;;;;;25.36;78.76;99259.03;7333131;39;20263;31
2023/08/12 15:06:29;;;;;;;5.78;3.22;;;;;;;25.34;77.95;99253.75;7279302;40;20423;31
2023/08/12 15:11:49;;;;;;;6.75;3.15;;;;;;;25.24;77.89;99255.56;7233650;40;20260;31
2023/08/12 15:22:24;;;;;;;4.65;2.72;;;;;;;25.20;78.11;99233.19;7311701;39;21103;31
2023/08/12 15:27:44;;;;;;;4.47;2.78;;;;;;;25.45;76.94;99224.34;7257888;40;22511;31
2023/08/12 15:38:22;;;;;;;4.80;2.15;;;;;;;25.65;74.33;99241.09;7273292;40;20448;31
2023/08/12 15:48:43;;;;;;;4.12;2.55;;;;;;;25.65;75.10;99263.19;7269097;40;21312;31
2023/08/12 15:59:24;;;;;;;3.30;2.45;;;;;;;25.65;74.46;99278.91;7299964;39;21341;31
2023/08/12 16:04:59;;;;;;;4.20;2.67;;;;;;;25.67;74.09;99282.25;7258575;39;20283;31
2023/08/12 16:10:19;;;;;;;4.17;2.53;;;;;;;25.53;73.16;99287.34;7252283;40;20249;31
2023/08/12 16:15:55;;;;;;;4.25;2.80;;;;;;;25.49;74.11;99264.94;7295070;40;20330;31
2023/08/12 16:21:16;;;;;;;4.00;2.45;;;;;;;25.58;73.89;99273.62;7262801;40;20435;31
2023/08/12 16:26:36;;;;;;;4.90;2.62;;;;;;;25.65;73.33;99277.00;7214773;40;20464;31
2023/08/12 16:32:09;;;;;;;3.17;2.20;;;;;;;25.66;73.19;99270.37;7198817;40;20257;31
2023/08/12 16:37:27;;;;;;;4.85;2.67;;;;;;;25.79;72.49;99280.97;7216780;40;20347;31
2023/08/12 16:42:47;;;;;;;5.97;2.65;;;;;;;25.70;72.93;99273.44;7205013;40;20250;31
2023/08/12 16:48:23;;;;;;;4.90;2.45;;;;;;;25.61;72.55;99278.63;7235336;40;20276;31
2023/08/12 16:53:58;;;;;;;7.60;2.90;;;;;;;25.58;72.49;99289.34;7252155;39;20276;31
2023/08/12 16:59:19;;;;;;;4.62;2.42;;;;;;;25.48;73.67;99287.28;7260251;40;20438;31
2023/08/12 17:04:54;;;;;;;3.20;2.28;;;;;;;25.31;73.09;99298.44;7263582;40;20328;31
2023/08/12 17:10:28;;;;;;;5.10;2.62;;;;;;;25.23;74.41;99295.31;7206928;40;20510;31
2023/08/12 17:15:48;;;;;;;5.82;2.96;;;;;;;25.15;73.99;99291.06;7230625;40;20241;31
2023/08/12 17:21:23;;;;;;;4.50;2.40;;;;;;;25.00;74.01;99297.25;7271470;40;20267;31
2023/08/12 17:26:58;;;;;;;4.22;2.70;;;;;;;25.06;73.72;99309.16;7269314;39;20265;31
2023/08/12 17:32:17;;;;;;;3.50;2.50;;;;;;;25.01;73.95;99328.44;7313745;39;20265;31
2023/08/12 17:37:53;;;;;;;4.60;2.30;;;;;;;24.92;73.76;99325.31;7251739;40;20671;31
2023/08/12 17:43:14;;;;;;;5.50;2.70;;;;;;;24.91;74.83;99336.59;7220588;40;20265;31
2023/08/12 17:48:48;;;;;;;6.15;2.45;;;;;;;24.83;77.46;99329.56;7250765;40;20280;31
2023/08/12 17:54:28;;;;;;;6.85;2.33;;;;;;;24.62;78.15;99330.34;7253125;39;20261;31
2023/08/12 17:59:46;;;;;;;5.15;2.05;;;;;;;24.39;77.83;99316.81;7182715;40;20266;31
2023/08/12 18:05:21;;;;;;;4.70;2.00;;;;;;;24.26;78.42;99312.50;7239471;39;20257;31
2023/08/12 18:10:57;;;;;;;5.53;2.20;;;;;;;24.22;79.22;99301.13;7201093;40;20446;31
2023/08/12 18:16:29;;;;;;;3.45;2.22;;;;;;;24.21;79.44;99299.47;7162117;40;20288;31
2023/08/12 18:22:01;;;;;;;3.60;2.05;;;;;;;24.19;80.16;99309.06;7191819;40;20482;31
2023/08/12 18:32:38;;;;;;;2.60;2.10;;;;;;;24.09;78.17;99309.69;7198662;40;21026;31
2023/08/12 18:43:15;;;;;;;2.70;1.70;;;;;;;23.94;77.35;99303.97;7300180;39;20272;31
2023/08/12 18:53:52;;;;;;;2.90;1.60;;;;;;;23.86;77.51;99309.06;7233937;40;21187;31
2023/08/12 19:04:16;;;;;;;2.37;1.50;;;;;;;23.71;78.30;99326.12;7342393;39;21240;31
2023/08/12 19:09:49;;;;;;;2.08;1.40;;;;;;;23.63;77.50;99348.56;7318269;39;20345;31
2023/08/12 19:15:25;;;;;;;2.28;1.40;;;;;;;23.47;76.76;99347.47;7223703;40;20287;31
2023/08/12 19:20:45;;;;;;;1.90;1.48;;;;;;;23.45;76.63;99354.28;7155148;40;20246;31
2023/08/12 19:26:21;;;;;;;2.92;1.50;;;;;;;23.42;76.88;99363.84;7180849;40;20261;31
2023/08/12 19:31:41;;;;;;;2.05;1.40;;;;;;;23.36;76.36;99373.91;7231027;40;20311;31
2023/08/12 19:37:16;;;;;;;1.45;1.20;;;;;;;23.33;76.65;99368.87;7273349;40;20322;31
2023/08/12 19:42:52;;;;;;;2.45;1.40;;;;;;;23.36;75.47;99384.91;7268732;39;20464;31
2023/08/12 19:48:24;;;;;;;2.23;1.48;;;;;;;23.24;76.92;99386.88;7036178;40;20425;31
2023/08/12 19:53:58;;;;;;;1.83;1.50;;;;;;;23.18;75.84;99395.25;7155042;40;21381;31
2023/08/12 19:59:34;;;;;;;2.20;1.40;;;;;;;23.08;77.37;99400.53;7169954;40;20262;31
2023/08/12 20:05:09;;;;;;;1.30;1.20;;;;;;;23.07;76.99;99396.12;7137824;40;20251;31
2023/08/12 20:10:44;;;;;;;2.03;1.43;;;;;;;23.06;76.85;99402.69;7222139;40;20362;31
2023/08/12 20:16:20;;;;;;;1.40;1.30;;;;;;;23.02;77.42;99394.09;7189369;40;20254;31
2023/08/12 20:21:53;;;;;;;2.80;1.30;;;;;;;23.05;77.32;99392.75;7197784;40;20587;31
2023/08/12 20:27:12;;;;;;;3.30;1.34;;;;;;;22.97;76.53;99399.47;7184212;40;20266;31
2023/08/12 20:32:48;;;;;;;3.65;1.50;;;;;;;22.94;77.36;99393.63;7247373;40;20265;31
2023/08/12 20:38:08;;;;;;;5.40;1.55;;;;;;;22.94;77.34;99399.97;7203274;40;20291;31
2023/08/12 20:43:28;;;;;;;1.80;1.40;;;;;;;22.91;77.19;99404.03;7246098;40;20265;31
2023/08/12 20:49:04;;;;;;;3.50;1.20;;;;;;;22.88;77.07;99407.25;7209129;40;20351;31
2023/08/12 20:54:24;;;;;;;2.10;1.30;;;;;;;22.88;77.39;99409.16;7239418;40;20253;31
2023/08/12 20:59:46;;;;;;;2.60;1.20;;;;;;;22.90;77.79;99409.78;7195624;40;20264;31
2023/08/12 21:05:21;;;;;;;1.90;1.50;;;;;;;22.87;77.66;99415.75;7199866;40;20518;31
2023/08/12 21:10:38;;;;;;;1.85;1.30;;;;;;;22.95;77.52;99418.12;7223437;40;20281;31
2023/08/12 21:16:13;;;;;;;2.20;1.25;;;;;;;23.03;78.11;99417.78;7263575;40;20384;31
2023/08/12 21:21:47;;;;;;;2.00;1.37;;;;;;;23.00;78.34;99423.72;7291192;40;20427;31
2023/08/12 21:27:07;;;;;;;2.62;1.40;;;;;;;22.88;77.86;99431.16;7215655;40;20269;31
2023/08/12 21:32:39;;;;;;;3.42;1.55;;;;;;;22.78;78.06;99439.16;7211786;40;20710;31
2023/08/12 21:43:16;;;;;;;2.35;1.50;;;;;;;22.66;78.42;99443.81;7201044;40;20356;31
2023/08/12 21:53:55;;;;;;;1.90;1.50;;;;;;;22.56;78.69;99427.91;7282762;39;20272;31
2023/08/12 21:59:31;;;;;;;2.10;1.35;;;;;;;22.55;79.05;99428.16;7259524;40;20250;31
2023/08/12 22:04:51;;;;;;;2.08;1.50;;;;;;;22.53;79.28;99433.06;7242099;40;20264;31
2023/08/12 22:10:26;;;;;;;2.67;1.42;;;;;;;22.47;79.34;99435.66;7239315;40;20257;31
2023/08/12 22:16:03;;;;;;;5.35;1.42;;;;;;;22.46;79.71;99434.03;7202772;40;20257;31
2023/08/12 22:21:24;;;;;;;3.70;1.65;;;;;;;22.45;79.60;99424.09;7213051;40;20270;31
2023/08/12 22:26:44;;;;;;;2.35;1.37;;;;;;;22.44;79.84;99424.31;7216983;40;20249;31
2023/08/12 22:32:18;;;;;;;1.54;1.44;;;;;;;22.34;80.69;99416.66;7277984;39;20266;31
2023/08/12 22:37:35;;;;;;;2.32;1.48;;;;;;;22.41;79.79;99416.56;7263950;39;20374;31
2023/08/12 22:48:13;;;;;;;2.17;1.48;;;;;;;22.30;80.90;99411.88;7275272;39;21399;31
2023/08/12 22:58:49;;;;;;;2.87;1.50;;;;;;;22.23;81.42;99402.94;7285203;39;21284;31
2023/08/12 23:09:26;;;;;;;2.00;1.50;;;;;;;22.14;81.53;99407.94;7237851;40;21304;31
2023/08/12 23:19:48;;;;;;;4.45;1.50;;;;;;;22.25;81.94;99396.12;7232601;39;21249;31
2023/08/12 23:30:22;;;;;;;5.28;1.60;;;;;;;21.97;82.15;99412.44;7327701;39;20289;31
2023/08/12 23:40:44;;;;;;;2.16;1.46;;;;;;;21.88;81.33;99409.16;7272515;40;21318;31
2023/08/12 23:51:20;;;;;;;2.72;1.80;;;;;;;21.76;82.48;99407.47;7267245;40;21057;31
2023/08/12 23:56:53;;;;;;;4.72;2.12;;;;;;;21.75;82.08;99394.78;7235406;40;20280;31
